sensor_id;sensor_type;location;lat;lon;timestamp;P1;durP1;ratioP1;P2;durP2;ratioP2
66272;SDS011;58450;52.150;4.466;2023-05-31T00:01:07;5.20;;;3.15;;
66272;SDS011;58450;52.150;4.466;2023-05-31T00:03:35;5.60;;;2.80;;
66272;SDS011;58450;52.150;4.466;2023-05-31T00:06:06;5.10;;;2.70;;
66272;SDS011;58450;52.150;4.466;2023-05-31T00:08:34;5.38;;;2.95;;
66272;SDS011;58450;52.150;4.466;2023-05-31T00:11:02;5.15;;;2.65;;
66272;SDS011;58450;52.150;4.466;2023-05-31T00:13:29;6.25;;;3.10;;
66272;SDS011;58450;52.150;4.466;2023-05-31T00:15:57;6.03;;;2.90;;
66272;SDS011;58450;52.150;4.466;2023-05-31T00:18:26;6.05;;;3.15;;
66272;SDS011;58450;52.150;4.466;2023-05-31T00:20:54;7.65;;;3.40;;
66272;SDS011;58450;52.150;4.466;2023-05-31T00:23:21;5.43;;;3.25;;
66272;SDS011;58450;52.150;4.466;2023-05-31T00:25:49;5.35;;;2.80;;
66272;SDS011;58450;52.150;4.466;2023-05-31T00:28:16;4.70;;;2.60;;
66272;SDS011;58450;52.150;4.466;2023-05-31T00:30:44;4.38;;;2.90;;
66272;SDS011;58450;52.150;4.466;2023-05-31T00:33:11;5.10;;;2.95;;
66272;SDS011;58450;52.150;4.466;2023-05-31T00:35:41;5.40;;;2.95;;
66272;SDS011;58450;52.150;4.466;2023-05-31T00:38:08;5.97;;;3.00;;
66272;SDS011;58450;52.150;4.466;2023-05-31T00:40:36;4.80;;;2.90;;
66272;SDS011;58450;52.150;4.466;2023-05-31T00:43:03;6.65;;;3.20;;
66272;SDS011;58450;52.150;4.466;2023-05-31T00:45:33;5.47;;;2.90;;
66272;SDS011;58450;52.150;4.466;2023-05-31T00:48:00;6.25;;;3.53;;
66272;SDS011;58450;52.150;4.466;2023-05-31T00:50:29;5.70;;;2.80;;
66272;SDS011;58450;52.150;4.466;2023-05-31T00:52:59;4.60;;;2.88;;
66272;SDS011;58450;52.150;4.466;2023-05-31T00:55:30;5.72;;;3.50;;
66272;SDS011;58450;52.150;4.466;2023-05-31T00:57:59;6.28;;;3.20;;
66272;SDS011;58450;52.150;4.466;2023-05-31T01:00:27;6.28;;;3.55;;
66272;SDS011;58450;52.150;4.466;2023-05-31T01:02:56;6.50;;;2.85;;
66272;SDS011;58450;52.150;4.466;2023-05-31T01:05:27;5.05;;;3.00;;
66272;SDS011;58450;52.150;4.466;2023-05-31T01:07:54;6.75;;;3.10;;
66272;SDS011;58450;52.150;4.466;2023-05-31T01:10:24;5.47;;;2.78;;
66272;SDS011;58450;52.150;4.466;2023-05-31T01:12:52;4.43;;;2.85;;
66272;SDS011;58450;52.150;4.466;2023-05-31T01:15:32;7.78;;;3.38;;
66272;SDS011;58450;52.150;4.466;2023-05-31T01:18:07;5.40;;;3.42;;
66272;SDS011;58450;52.150;4.466;2023-05-31T01:20:45;6.50;;;3.35;;
66272;SDS011;58450;52.150;4.466;2023-05-31T01:23:24;7.07;;;3.50;;
66272;SDS011;58450;52.150;4.466;2023-05-31T01:26:18;6.40;;;3.30;;
66272;SDS011;58450;52.150;4.466;2023-05-31T01:29:03;6.85;;;3.20;;
66272;SDS011;58450;52.150;4.466;2023-05-31T01:31:35;6.40;;;3.65;;
66272;SDS011;58450;52.150;4.466;2023-05-31T01:34:05;5.88;;;3.05;;
66272;SDS011;58450;52.150;4.466;2023-05-31T01:36:35;6.55;;;3.30;;
66272;SDS011;58450;52.150;4.466;2023-05-31T01:39:02;5.60;;;3.25;;
66272;SDS011;58450;52.150;4.466;2023-05-31T01:41:37;5.68;;;3.13;;
66272;SDS011;58450;52.150;4.466;2023-05-31T01:44:07;6.40;;;3.42;;
66272;SDS011;58450;52.150;4.466;2023-05-31T01:46:37;6.65;;;3.90;;
66272;SDS011;58450;52.150;4.466;2023-05-31T01:49:07;7.25;;;3.63;;
66272;SDS011;58450;52.150;4.466;2023-05-31T01:51:37;6.28;;;3.65;;
66272;SDS011;58450;52.150;4.466;2023-05-31T01:54:09;8.38;;;4.00;;
66272;SDS011;58450;52.150;4.466;2023-05-31T01:56:38;7.30;;;3.70;;
66272;SDS011;58450;52.150;4.466;2023-05-31T01:59:08;6.85;;;3.72;;
66272;SDS011;58450;52.150;4.466;2023-05-31T02:01:37;7.65;;;3.60;;
66272;SDS011;58450;52.150;4.466;2023-05-31T02:04:07;6.72;;;3.97;;
66272;SDS011;58450;52.150;4.466;2023-05-31T02:06:35;6.57;;;3.67;;
66272;SDS011;58450;52.150;4.466;2023-05-31T02:09:03;6.53;;;3.78;;
66272;SDS011;58450;52.150;4.466;2023-05-31T02:11:32;7.40;;;4.32;;
66272;SDS011;58450;52.150;4.466;2023-05-31T02:14:01;5.97;;;3.58;;
66272;SDS011;58450;52.150;4.466;2023-05-31T02:16:29;7.10;;;3.75;;
66272;SDS011;58450;52.150;4.466;2023-05-31T02:18:57;8.25;;;4.13;;
66272;SDS011;58450;52.150;4.466;2023-05-31T02:21:24;7.40;;;3.45;;
66272;SDS011;58450;52.150;4.466;2023-05-31T02:23:52;6.75;;;3.72;;
66272;SDS011;58450;52.150;4.466;2023-05-31T02:26:19;7.32;;;3.85;;
66272;SDS011;58450;52.150;4.466;2023-05-31T02:28:47;6.68;;;3.67;;
66272;SDS011;58450;52.150;4.466;2023-05-31T02:31:16;5.78;;;3.53;;
66272;SDS011;58450;52.150;4.466;2023-05-31T02:33:44;6.03;;;3.80;;
66272;SDS011;58450;52.150;4.466;2023-05-31T02:36:11;6.80;;;3.45;;
66272;SDS011;58450;52.150;4.466;2023-05-31T02:38:39;8.70;;;4.03;;
66272;SDS011;58450;52.150;4.466;2023-05-31T02:41:07;6.18;;;3.30;;
66272;SDS011;58450;52.150;4.466;2023-05-31T02:43:34;8.20;;;3.95;;
66272;SDS011;58450;52.150;4.466;2023-05-31T02:46:02;8.05;;;3.50;;
66272;SDS011;58450;52.150;4.466;2023-05-31T02:48:31;7.10;;;3.90;;
66272;SDS011;58450;52.150;4.466;2023-05-31T02:50:59;8.07;;;4.05;;
66272;SDS011;58450;52.150;4.466;2023-05-31T02:53:27;7.78;;;3.72;;
66272;SDS011;58450;52.150;4.466;2023-05-31T02:55:56;8.45;;;3.60;;
66272;SDS011;58450;52.150;4.466;2023-05-31T02:58:24;7.28;;;3.45;;
66272;SDS011;58450;52.150;4.466;2023-05-31T03:00:51;6.80;;;3.83;;
66272;SDS011;58450;52.150;4.466;2023-05-31T03:03:19;7.80;;;3.55;;
66272;SDS011;58450;52.150;4.466;2023-05-31T03:05:49;7.10;;;3.92;;
66272;SDS011;58450;52.150;4.466;2023-05-31T03:08:17;6.50;;;3.72;;
66272;SDS011;58450;52.150;4.466;2023-05-31T03:10:44;6.18;;;3.20;;
66272;SDS011;58450;52.150;4.466;2023-05-31T03:13:12;6.72;;;3.88;;
66272;SDS011;58450;52.150;4.466;2023-05-31T03:15:39;7.03;;;3.85;;
66272;SDS011;58450;52.150;4.466;2023-05-31T03:18:07;8.32;;;3.63;;
66272;SDS011;58450;52.150;4.466;2023-05-31T03:20:34;8.80;;;4.07;;
66272;SDS011;58450;52.150;4.466;2023-05-31T03:23:03;6.35;;;3.58;;
66272;SDS011;58450;52.150;4.466;2023-05-31T03:25:32;7.63;;;4.18;;
66272;SDS011;58450;52.150;4.466;2023-05-31T03:28:00;7.95;;;3.78;;
66272;SDS011;58450;52.150;4.466;2023-05-31T03:30:28;7.32;;;4.05;;
66272;SDS011;58450;52.150;4.466;2023-05-31T03:32:56;6.93;;;3.90;;
66272;SDS011;58450;52.150;4.466;2023-05-31T03:35:23;6.72;;;3.95;;
66272;SDS011;58450;52.150;4.466;2023-05-31T03:37:52;7.35;;;4.03;;
66272;SDS011;58450;52.150;4.466;2023-05-31T03:40:21;7.40;;;3.95;;
66272;SDS011;58450;52.150;4.466;2023-05-31T03:42:49;7.45;;;4.07;;
66272;SDS011;58450;52.150;4.466;2023-05-31T03:45:16;7.68;;;4.30;;
66272;SDS011;58450;52.150;4.466;2023-05-31T03:47:44;8.32;;;4.22;;
66272;SDS011;58450;52.150;4.466;2023-05-31T03:50:12;8.70;;;4.50;;
66272;SDS011;58450;52.150;4.466;2023-05-31T03:52:39;8.40;;;4.57;;
66272;SDS011;58450;52.150;4.466;2023-05-31T03:55:07;7.43;;;4.00;;
66272;SDS011;58450;52.150;4.466;2023-05-31T03:57:37;7.93;;;4.10;;
66272;SDS011;58450;52.150;4.466;2023-05-31T04:00:05;7.32;;;4.15;;
66272;SDS011;58450;52.150;4.466;2023-05-31T04:02:36;7.80;;;3.90;;
66272;SDS011;58450;52.150;4.466;2023-05-31T04:05:04;8.80;;;3.92;;
66272;SDS011;58450;52.150;4.466;2023-05-31T04:07:32;9.40;;;4.50;;
66272;SDS011;58450;52.150;4.466;2023-05-31T04:10:00;9.15;;;4.38;;
66272;SDS011;58450;52.150;4.466;2023-05-31T04:12:27;8.27;;;4.20;;
66272;SDS011;58450;52.150;4.466;2023-05-31T04:14:56;7.80;;;4.10;;
66272;SDS011;58450;52.150;4.466;2023-05-31T04:17:24;8.45;;;3.97;;
66272;SDS011;58450;52.150;4.466;2023-05-31T04:19:51;7.20;;;3.83;;
66272;SDS011;58450;52.150;4.466;2023-05-31T04:22:19;9.88;;;4.10;;
66272;SDS011;58450;52.150;4.466;2023-05-31T04:24:48;10.13;;;4.72;;
66272;SDS011;58450;52.150;4.466;2023-05-31T04:27:15;10.27;;;4.18;;
66272;SDS011;58450;52.150;4.466;2023-05-31T04:29:44;8.82;;;4.68;;
66272;SDS011;58450;52.150;4.466;2023-05-31T04:32:14;9.02;;;4.65;;
66272;SDS011;58450;52.150;4.466;2023-05-31T04:34:41;8.88;;;4.55;;
66272;SDS011;58450;52.150;4.466;2023-05-31T04:37:09;10.02;;;5.25;;
66272;SDS011;58450;52.150;4.466;2023-05-31T04:39:36;8.65;;;4.68;;
66272;SDS011;58450;52.150;4.466;2023-05-31T04:42:04;8.32;;;4.70;;
66272;SDS011;58450;52.150;4.466;2023-05-31T04:44:37;8.98;;;4.72;;
66272;SDS011;58450;52.150;4.466;2023-05-31T04:47:05;9.60;;;5.22;;
66272;SDS011;58450;52.150;4.466;2023-05-31T04:49:35;10.23;;;5.30;;
66272;SDS011;58450;52.150;4.466;2023-05-31T04:52:03;9.90;;;5.47;;
66272;SDS011;58450;52.150;4.466;2023-05-31T04:54:32;8.88;;;5.07;;
66272;SDS011;58450;52.150;4.466;2023-05-31T04:56:59;9.48;;;5.82;;
66272;SDS011;58450;52.150;4.466;2023-05-31T04:59:28;8.93;;;5.05;;
66272;SDS011;58450;52.150;4.466;2023-05-31T05:01:56;10.52;;;4.80;;
66272;SDS011;58450;52.150;4.466;2023-05-31T05:04:23;9.23;;;4.43;;
66272;SDS011;58450;52.150;4.466;2023-05-31T05:06:52;8.05;;;4.25;;
66272;SDS011;58450;52.150;4.466;2023-05-31T05:09:20;9.75;;;4.25;;
66272;SDS011;58450;52.150;4.466;2023-05-31T05:11:47;8.23;;;4.72;;
66272;SDS011;58450;52.150;4.466;2023-05-31T05:14:15;8.45;;;4.15;;
66272;SDS011;58450;52.150;4.466;2023-05-31T05:16:42;9.32;;;5.32;;
66272;SDS011;58450;52.150;4.466;2023-05-31T05:19:10;7.82;;;4.50;;
66272;SDS011;58450;52.150;4.466;2023-05-31T05:21:38;8.23;;;4.43;;
66272;SDS011;58450;52.150;4.466;2023-05-31T05:24:07;8.55;;;4.55;;
66272;SDS011;58450;52.150;4.466;2023-05-31T05:26:34;8.43;;;4.03;;
66272;SDS011;58450;52.150;4.466;2023-05-31T05:29:02;9.48;;;4.28;;
66272;SDS011;58450;52.150;4.466;2023-05-31T05:31:30;8.00;;;4.15;;
66272;SDS011;58450;52.150;4.466;2023-05-31T05:33:57;9.43;;;5.10;;
66272;SDS011;58450;52.150;4.466;2023-05-31T05:36:25;9.55;;;4.70;;
66272;SDS011;58450;52.150;4.466;2023-05-31T05:38:53;10.82;;;4.82;;
66272;SDS011;58450;52.150;4.466;2023-05-31T05:41:22;8.02;;;4.15;;
66272;SDS011;58450;52.150;4.466;2023-05-31T05:43:51;8.23;;;4.22;;
66272;SDS011;58450;52.150;4.466;2023-05-31T05:46:19;8.55;;;4.30;;
66272;SDS011;58450;52.150;4.466;2023-05-31T05:48:46;8.52;;;4.43;;
66272;SDS011;58450;52.150;4.466;2023-05-31T05:51:14;8.45;;;4.75;;
66272;SDS011;58450;52.150;4.466;2023-05-31T05:53:41;9.52;;;4.55;;
66272;SDS011;58450;52.150;4.466;2023-05-31T05:56:09;7.90;;;4.88;;
66272;SDS011;58450;52.150;4.466;2023-05-31T05:58:40;10.35;;;4.80;;
66272;SDS011;58450;52.150;4.466;2023-05-31T06:01:08;8.15;;;4.72;;
66272;SDS011;58450;52.150;4.466;2023-05-31T06:03:38;8.70;;;4.90;;
66272;SDS011;58450;52.150;4.466;2023-05-31T06:06:06;7.75;;;4.63;;
66272;SDS011;58450;52.150;4.466;2023-05-31T06:08:33;8.55;;;4.50;;
66272;SDS011;58450;52.150;4.466;2023-05-31T06:11:01;8.95;;;4.93;;
66272;SDS011;58450;52.150;4.466;2023-05-31T06:13:29;8.15;;;4.65;;
66272;SDS011;58450;52.150;4.466;2023-05-31T06:15:58;7.18;;;4.32;;
66272;SDS011;58450;52.150;4.466;2023-05-31T06:18:25;7.82;;;4.25;;
66272;SDS011;58450;52.150;4.466;2023-05-31T06:20:53;8.27;;;4.22;;
66272;SDS011;58450;52.150;4.466;2023-05-31T06:23:21;7.50;;;4.22;;
66272;SDS011;58450;52.150;4.466;2023-05-31T06:25:48;9.15;;;4.70;;
66272;SDS011;58450;52.150;4.466;2023-05-31T06:28:17;8.00;;;4.45;;
66272;SDS011;58450;52.150;4.466;2023-05-31T06:30:44;7.82;;;4.28;;
66272;SDS011;58450;52.150;4.466;2023-05-31T06:33:14;7.82;;;4.55;;
66272;SDS011;58450;52.150;4.466;2023-05-31T06:35:41;8.55;;;4.32;;
66272;SDS011;58450;52.150;4.466;2023-05-31T06:38:10;7.28;;;3.90;;
66272;SDS011;58450;52.150;4.466;2023-05-31T06:40:41;8.27;;;4.00;;
66272;SDS011;58450;52.150;4.466;2023-05-31T06:43:09;8.27;;;4.35;;
66272;SDS011;58450;52.150;4.466;2023-05-31T06:45:37;7.25;;;3.88;;
66272;SDS011;58450;52.150;4.466;2023-05-31T06:48:07;7.00;;;4.10;;
66272;SDS011;58450;52.150;4.466;2023-05-31T06:50:36;10.35;;;4.80;;
66272;SDS011;58450;52.150;4.466;2023-05-31T06:53:04;6.88;;;4.30;;
66272;SDS011;58450;52.150;4.466;2023-05-31T06:55:31;6.88;;;4.05;;
66272;SDS011;58450;52.150;4.466;2023-05-31T06:57:59;8.80;;;4.25;;
66272;SDS011;58450;52.150;4.466;2023-05-31T07:00:27;6.25;;;3.85;;
66272;SDS011;58450;52.150;4.466;2023-05-31T07:02:54;5.68;;;3.50;;
66272;SDS011;58450;52.150;4.466;2023-05-31T07:05:22;7.07;;;4.10;;
66272;SDS011;58450;52.150;4.466;2023-05-31T07:07:51;7.13;;;4.05;;
66272;SDS011;58450;52.150;4.466;2023-05-31T07:10:18;7.57;;;4.50;;
66272;SDS011;58450;52.150;4.466;2023-05-31T07:12:46;7.28;;;4.43;;
66272;SDS011;58450;52.150;4.466;2023-05-31T07:15:13;8.15;;;4.10;;
66272;SDS011;58450;52.150;4.466;2023-05-31T07:17:41;8.02;;;4.07;;
66272;SDS011;58450;52.150;4.466;2023-05-31T07:20:09;4.80;;;3.20;;
66272;SDS011;58450;52.150;4.466;2023-05-31T07:22:37;6.43;;;3.38;;
66272;SDS011;58450;52.150;4.466;2023-05-31T07:25:07;7.88;;;4.20;;
66272;SDS011;58450;52.150;4.466;2023-05-31T07:27:35;5.63;;;3.50;;
66272;SDS011;58450;52.150;4.466;2023-05-31T07:30:03;7.82;;;3.88;;
66272;SDS011;58450;52.150;4.466;2023-05-31T07:32:33;5.65;;;3.72;;
66272;SDS011;58450;52.150;4.466;2023-05-31T07:35:00;6.25;;;3.58;;
66272;SDS011;58450;52.150;4.466;2023-05-31T07:37:29;6.07;;;3.42;;
66272;SDS011;58450;52.150;4.466;2023-05-31T07:39:57;5.32;;;3.20;;
66272;SDS011;58450;52.150;4.466;2023-05-31T07:42:26;6.45;;;3.42;;
66272;SDS011;58450;52.150;4.466;2023-05-31T07:44:54;7.15;;;3.38;;
66272;SDS011;58450;52.150;4.466;2023-05-31T07:47:21;6.05;;;3.42;;
66272;SDS011;58450;52.150;4.466;2023-05-31T07:49:50;5.97;;;2.92;;
66272;SDS011;58450;52.150;4.466;2023-05-31T07:52:18;6.25;;;3.15;;
66272;SDS011;58450;52.150;4.466;2023-05-31T07:54:47;7.38;;;3.25;;
66272;SDS011;58450;52.150;4.466;2023-05-31T07:57:15;6.80;;;2.92;;
66272;SDS011;58450;52.150;4.466;2023-05-31T07:59:44;5.88;;;3.15;;
66272;SDS011;58450;52.150;4.466;2023-05-31T08:02:12;4.70;;;2.88;;
66272;SDS011;58450;52.150;4.466;2023-05-31T08:04:40;6.10;;;3.22;;
66272;SDS011;58450;52.150;4.466;2023-05-31T08:07:07;5.97;;;3.40;;
66272;SDS011;58450;52.150;4.466;2023-05-31T08:09:35;6.30;;;3.00;;
66272;SDS011;58450;52.150;4.466;2023-05-31T08:12:03;5.45;;;2.90;;
66272;SDS011;58450;52.150;4.466;2023-05-31T08:14:32;7.35;;;2.90;;
66272;SDS011;58450;52.150;4.466;2023-05-31T08:17:01;5.63;;;3.08;;
66272;SDS011;58450;52.150;4.466;2023-05-31T08:19:28;5.32;;;3.03;;
66272;SDS011;58450;52.150;4.466;2023-05-31T08:21:56;6.50;;;3.10;;
66272;SDS011;58450;52.150;4.466;2023-05-31T08:24:24;6.20;;;2.88;;
66272;SDS011;58450;52.150;4.466;2023-05-31T08:26:51;7.90;;;3.15;;
66272;SDS011;58450;52.150;4.466;2023-05-31T08:29:19;5.00;;;2.88;;
66272;SDS011;58450;52.150;4.466;2023-05-31T08:31:46;5.88;;;3.25;;
66272;SDS011;58450;52.150;4.466;2023-05-31T08:34:15;5.93;;;3.15;;
66272;SDS011;58450;52.150;4.466;2023-05-31T08:36:44;6.68;;;3.03;;
66272;SDS011;58450;52.150;4.466;2023-05-31T08:39:13;5.97;;;3.00;;
66272;SDS011;58450;52.150;4.466;2023-05-31T08:41:43;9.15;;;3.13;;
66272;SDS011;58450;52.150;4.466;2023-05-31T08:44:20;5.90;;;2.80;;
66272;SDS011;58450;52.150;4.466;2023-05-31T08:46:48;6.25;;;2.78;;
66272;SDS011;58450;52.150;4.466;2023-05-31T08:49:17;6.63;;;3.30;;
66272;SDS011;58450;52.150;4.466;2023-05-31T08:51:46;3.85;;;2.50;;
66272;SDS011;58450;52.150;4.466;2023-05-31T08:54:15;6.28;;;2.83;;
66272;SDS011;58450;52.150;4.466;2023-05-31T08:56:44;5.68;;;2.70;;
66272;SDS011;58450;52.150;4.466;2023-05-31T08:59:13;5.43;;;2.92;;
66272;SDS011;58450;52.150;4.466;2023-05-31T09:01:44;6.65;;;3.13;;
66272;SDS011;58450;52.150;4.466;2023-05-31T09:04:13;4.57;;;2.38;;
66272;SDS011;58450;52.150;4.466;2023-05-31T09:06:43;5.45;;;2.70;;
66272;SDS011;58450;52.150;4.466;2023-05-31T09:09:10;6.15;;;2.53;;
66272;SDS011;58450;52.150;4.466;2023-05-31T09:11:38;4.50;;;2.50;;
66272;SDS011;58450;52.150;4.466;2023-05-31T09:14:06;5.78;;;2.72;;
66272;SDS011;58450;52.150;4.466;2023-05-31T09:16:35;6.13;;;2.97;;
66272;SDS011;58450;52.150;4.466;2023-05-31T09:19:03;6.80;;;3.00;;
66272;SDS011;58450;52.150;4.466;2023-05-31T09:21:37;5.30;;;2.65;;
66272;SDS011;58450;52.150;4.466;2023-05-31T09:24:07;5.28;;;2.70;;
66272;SDS011;58450;52.150;4.466;2023-05-31T09:26:38;5.18;;;2.58;;
66272;SDS011;58450;52.150;4.466;2023-05-31T09:29:14;5.30;;;2.50;;
66272;SDS011;58450;52.150;4.466;2023-05-31T09:31:43;5.10;;;2.47;;
66272;SDS011;58450;52.150;4.466;2023-05-31T09:34:23;3.75;;;2.13;;
66272;SDS011;58450;52.150;4.466;2023-05-31T09:36:56;5.88;;;2.28;;
66272;SDS011;58450;52.150;4.466;2023-05-31T09:39:26;5.75;;;2.33;;
66272;SDS011;58450;52.150;4.466;2023-05-31T09:41:55;4.10;;;2.30;;
66272;SDS011;58450;52.150;4.466;2023-05-31T09:44:25;4.93;;;2.55;;
66272;SDS011;58450;52.150;4.466;2023-05-31T09:46:54;4.53;;;2.50;;
66272;SDS011;58450;52.150;4.466;2023-05-31T09:49:22;6.40;;;2.65;;
66272;SDS011;58450;52.150;4.466;2023-05-31T09:51:53;5.32;;;2.42;;
66272;SDS011;58450;52.150;4.466;2023-05-31T09:54:21;5.63;;;2.80;;
66272;SDS011;58450;52.150;4.466;2023-05-31T09:56:52;4.93;;;2.15;;
66272;SDS011;58450;52.150;4.466;2023-05-31T09:59:20;5.70;;;2.42;;
66272;SDS011;58450;52.150;4.466;2023-05-31T10:01:48;6.72;;;2.65;;
66272;SDS011;58450;52.150;4.466;2023-05-31T10:04:17;4.15;;;2.30;;
66272;SDS011;58450;52.150;4.466;2023-05-31T10:06:46;6.28;;;2.40;;
66272;SDS011;58450;52.150;4.466;2023-05-31T10:09:15;6.13;;;2.70;;
66272;SDS011;58450;52.150;4.466;2023-05-31T10:11:45;6.60;;;2.30;;
66272;SDS011;58450;52.150;4.466;2023-05-31T10:14:20;5.85;;;2.75;;
66272;SDS011;58450;52.150;4.466;2023-05-31T10:16:53;5.70;;;2.78;;
66272;SDS011;58450;52.150;4.466;2023-05-31T10:19:23;5.60;;;2.55;;
66272;SDS011;58450;52.150;4.466;2023-05-31T10:21:58;6.68;;;2.75;;
66272;SDS011;58450;52.150;4.466;2023-05-31T10:24:32;6.00;;;2.83;;
66272;SDS011;58450;52.150;4.466;2023-05-31T10:27:16;4.78;;;2.30;;
66272;SDS011;58450;52.150;4.466;2023-05-31T10:29:51;6.57;;;2.50;;
66272;SDS011;58450;52.150;4.466;2023-05-31T10:34:52;6.57;;;2.60;;
66272;SDS011;58450;52.150;4.466;2023-05-31T10:37:20;4.50;;;2.17;;
66272;SDS011;58450;52.150;4.466;2023-05-31T10:39:52;5.70;;;2.60;;
66272;SDS011;58450;52.150;4.466;2023-05-31T10:42:28;6.70;;;2.85;;
66272;SDS011;58450;52.150;4.466;2023-05-31T10:45:10;6.43;;;2.50;;
66272;SDS011;58450;52.150;4.466;2023-05-31T10:47:46;5.97;;;2.30;;
66272;SDS011;58450;52.150;4.466;2023-05-31T10:50:20;6.28;;;2.60;;
66272;SDS011;58450;52.150;4.466;2023-05-31T10:52:48;5.80;;;2.60;;
66272;SDS011;58450;52.150;4.466;2023-05-31T10:55:17;5.45;;;2.90;;
66272;SDS011;58450;52.150;4.466;2023-05-31T10:57:50;5.40;;;2.58;;
66272;SDS011;58450;52.150;4.466;2023-05-31T11:00:22;5.45;;;2.95;;
66272;SDS011;58450;52.150;4.466;2023-05-31T11:02:51;5.20;;;2.50;;
66272;SDS011;58450;52.150;4.466;2023-05-31T11:05:21;6.57;;;2.80;;
66272;SDS011;58450;52.150;4.466;2023-05-31T11:07:52;4.95;;;2.78;;
66272;SDS011;58450;52.150;4.466;2023-05-31T11:10:25;6.00;;;2.55;;
66272;SDS011;58450;52.150;4.466;2023-05-31T11:12:55;6.45;;;2.88;;
66272;SDS011;58450;52.150;4.466;2023-05-31T11:15:38;5.63;;;2.42;;
66272;SDS011;58450;52.150;4.466;2023-05-31T11:18:08;4.80;;;2.50;;
66272;SDS011;58450;52.150;4.466;2023-05-31T11:20:42;5.00;;;2.50;;
66272;SDS011;58450;52.150;4.466;2023-05-31T11:23:25;5.53;;;2.60;;
66272;SDS011;58450;52.150;4.466;2023-05-31T11:26:14;4.63;;;2.55;;
66272;SDS011;58450;52.150;4.466;2023-05-31T11:28:56;6.13;;;2.72;;
66272;SDS011;58450;52.150;4.466;2023-05-31T11:34:28;5.47;;;2.85;;
66272;SDS011;58450;52.150;4.466;2023-05-31T11:36:59;7.20;;;2.30;;
66272;SDS011;58450;52.150;4.466;2023-05-31T11:39:29;5.28;;;2.42;;
66272;SDS011;58450;52.150;4.466;2023-05-31T11:41:57;5.45;;;2.38;;
66272;SDS011;58450;52.150;4.466;2023-05-31T11:44:27;5.07;;;2.50;;
66272;SDS011;58450;52.150;4.466;2023-05-31T11:47:01;4.53;;;2.42;;
66272;SDS011;58450;52.150;4.466;2023-05-31T11:49:32;6.70;;;2.67;;
66272;SDS011;58450;52.150;4.466;2023-05-31T11:52:00;17.02;;;2.50;;
66272;SDS011;58450;52.150;4.466;2023-05-31T11:54:30;6.88;;;2.72;;
66272;SDS011;58450;52.150;4.466;2023-05-31T11:57:02;5.07;;;2.53;;
66272;SDS011;58450;52.150;4.466;2023-05-31T11:59:32;6.50;;;2.75;;
66272;SDS011;58450;52.150;4.466;2023-05-31T12:02:03;4.90;;;2.47;;
66272;SDS011;58450;52.150;4.466;2023-05-31T12:04:32;7.38;;;2.30;;
66272;SDS011;58450;52.150;4.466;2023-05-31T12:07:02;5.05;;;2.08;;
66272;SDS011;58450;52.150;4.466;2023-05-31T12:09:32;4.45;;;2.10;;
66272;SDS011;58450;52.150;4.466;2023-05-31T12:12:01;4.75;;;2.40;;
66272;SDS011;58450;52.150;4.466;2023-05-31T12:14:32;4.70;;;2.08;;
66272;SDS011;58450;52.150;4.466;2023-05-31T12:17:02;4.80;;;1.92;;
66272;SDS011;58450;52.150;4.466;2023-05-31T12:19:32;5.55;;;2.60;;
66272;SDS011;58450;52.150;4.466;2023-05-31T12:22:00;5.43;;;2.22;;
66272;SDS011;58450;52.150;4.466;2023-05-31T12:24:29;3.83;;;2.00;;
66272;SDS011;58450;52.150;4.466;2023-05-31T12:26:56;4.80;;;2.22;;
66272;SDS011;58450;52.150;4.466;2023-05-31T12:29:25;4.80;;;2.40;;
66272;SDS011;58450;52.150;4.466;2023-05-31T12:34:32;4.80;;;2.45;;
66272;SDS011;58450;52.150;4.466;2023-05-31T12:37:02;7.75;;;2.55;;
66272;SDS011;58450;52.150;4.466;2023-05-31T12:39:33;5.80;;;2.13;;
66272;SDS011;58450;52.150;4.466;2023-05-31T12:42:01;4.40;;;2.03;;
66272;SDS011;58450;52.150;4.466;2023-05-31T12:44:30;5.35;;;2.10;;
66272;SDS011;58450;52.150;4.466;2023-05-31T12:46:59;5.10;;;2.13;;
66272;SDS011;58450;52.150;4.466;2023-05-31T12:49:30;6.30;;;2.00;;
66272;SDS011;58450;52.150;4.466;2023-05-31T12:51:59;4.20;;;1.85;;
66272;SDS011;58450;52.150;4.466;2023-05-31T12:54:28;4.35;;;2.00;;
66272;SDS011;58450;52.150;4.466;2023-05-31T12:56:59;5.85;;;2.25;;
66272;SDS011;58450;52.150;4.466;2023-05-31T12:59:28;6.00;;;2.28;;
66272;SDS011;58450;52.150;4.466;2023-05-31T13:01:57;4.40;;;1.90;;
66272;SDS011;58450;52.150;4.466;2023-05-31T13:04:25;6.70;;;2.03;;
66272;SDS011;58450;52.150;4.466;2023-05-31T13:06:54;5.60;;;2.10;;
66272;SDS011;58450;52.150;4.466;2023-05-31T13:09:24;5.10;;;1.85;;
66272;SDS011;58450;52.150;4.466;2023-05-31T13:11:52;4.57;;;2.10;;
66272;SDS011;58450;52.150;4.466;2023-05-31T13:14:20;4.72;;;1.80;;
66272;SDS011;58450;52.150;4.466;2023-05-31T13:16:48;4.10;;;1.90;;
66272;SDS011;58450;52.150;4.466;2023-05-31T13:19:16;4.57;;;1.67;;
66272;SDS011;58450;52.150;4.466;2023-05-31T13:21:43;4.90;;;1.90;;
66272;SDS011;58450;52.150;4.466;2023-05-31T13:24:12;5.88;;;1.90;;
66272;SDS011;58450;52.150;4.466;2023-05-31T13:26:40;3.17;;;1.77;;
66272;SDS011;58450;52.150;4.466;2023-05-31T13:29:08;5.63;;;1.88;;
66272;SDS011;58450;52.150;4.466;2023-05-31T13:31:36;4.78;;;2.10;;
66272;SDS011;58450;52.150;4.466;2023-05-31T13:34:03;3.55;;;1.70;;
66272;SDS011;58450;52.150;4.466;2023-05-31T13:36:31;5.72;;;1.77;;
66272;SDS011;58450;52.150;4.466;2023-05-31T13:38:58;4.93;;;1.88;;
66272;SDS011;58450;52.150;4.466;2023-05-31T13:41:28;5.47;;;2.03;;
66272;SDS011;58450;52.150;4.466;2023-05-31T13:43:56;5.07;;;2.05;;
66272;SDS011;58450;52.150;4.466;2023-05-31T13:46:23;5.13;;;1.83;;
66272;SDS011;58450;52.150;4.466;2023-05-31T13:48:52;4.28;;;1.90;;
66272;SDS011;58450;52.150;4.466;2023-05-31T13:51:20;7.18;;;2.10;;
66272;SDS011;58450;52.150;4.466;2023-05-31T13:53:47;4.85;;;1.92;;
66272;SDS011;58450;52.150;4.466;2023-05-31T13:56:15;3.58;;;1.77;;
66272;SDS011;58450;52.150;4.466;2023-05-31T13:58:44;3.47;;;1.90;;
66272;SDS011;58450;52.150;4.466;2023-05-31T14:01:12;7.38;;;2.38;;
66272;SDS011;58450;52.150;4.466;2023-05-31T14:03:39;5.03;;;2.10;;
66272;SDS011;58450;52.150;4.466;2023-05-31T14:06:07;4.18;;;1.90;;
66272;SDS011;58450;52.150;4.466;2023-05-31T14:08:34;4.55;;;1.70;;
66272;SDS011;58450;52.150;4.466;2023-05-31T14:11:02;4.90;;;2.38;;
66272;SDS011;58450;52.150;4.466;2023-05-31T14:13:30;6.63;;;2.22;;
66272;SDS011;58450;52.150;4.466;2023-05-31T14:15:59;5.13;;;2.30;;
66272;SDS011;58450;52.150;4.466;2023-05-31T14:18:27;4.18;;;1.70;;
66272;SDS011;58450;52.150;4.466;2023-05-31T14:20:55;4.60;;;2.13;;
66272;SDS011;58450;52.150;4.466;2023-05-31T14:23:22;4.63;;;2.00;;
66272;SDS011;58450;52.150;4.466;2023-05-31T14:25:50;4.22;;;2.20;;
66272;SDS011;58450;52.150;4.466;2023-05-31T14:28:17;3.97;;;1.98;;
66272;SDS011;58450;52.150;4.466;2023-05-31T14:30:45;4.28;;;1.98;;
66272;SDS011;58450;52.150;4.466;2023-05-31T14:33:14;4.20;;;2.10;;
66272;SDS011;58450;52.150;4.466;2023-05-31T14:35:41;5.43;;;2.25;;
66272;SDS011;58450;52.150;4.466;2023-05-31T14:38:09;4.97;;;1.95;;
66272;SDS011;58450;52.150;4.466;2023-05-31T14:40:37;4.70;;;2.00;;
66272;SDS011;58450;52.150;4.466;2023-05-31T14:43:04;6.75;;;2.10;;
66272;SDS011;58450;52.150;4.466;2023-05-31T14:45:32;4.55;;;2.10;;
66272;SDS011;58450;52.150;4.466;2023-05-31T14:47:59;5.07;;;2.17;;
66272;SDS011;58450;52.150;4.466;2023-05-31T14:50:28;5.00;;;2.42;;
66272;SDS011;58450;52.150;4.466;2023-05-31T14:52:56;5.60;;;2.28;;
66272;SDS011;58450;52.150;4.466;2023-05-31T14:55:23;4.57;;;2.22;;
66272;SDS011;58450;52.150;4.466;2023-05-31T14:57:51;5.00;;;2.00;;
66272;SDS011;58450;52.150;4.466;2023-05-31T15:00:18;3.70;;;2.00;;
66272;SDS011;58450;52.150;4.466;2023-05-31T15:02:46;4.65;;;2.45;;
66272;SDS011;58450;52.150;4.466;2023-05-31T15:05:14;6.90;;;2.53;;
66272;SDS011;58450;52.150;4.466;2023-05-31T15:07:43;7.45;;;2.22;;